EGKK

London Gatwick Airport

London, United Kingdom
METAR EGKK 160620Z VRB03KT CAVOK 19/12 Q1014
Observed Flight Rules
Jul-16 @ 06:20 UTC (35 minutes ago) Visual Flight Rules
Wind Visibility Clouds
Variable at 3 knots 10,000+ meters
  • Clear skies
Temperatures Readings
Current 19°C / 66°F
Dewpoint 12°C / 54°F
Humidity 64%
Altimeter 29.94" Hg
Pressure 1014 hPa
Elevation 62
METAR EGKK 160620Z VRB03KT CAVOK 19/12 Q1014
Observed Flight Rules
Jul-16 @ 06:20 UTC
(35 minutes ago)
VFR
Wind Visibility
Variable at 3 knots 10,000+ meters
Clouds
  • Clear skies
Temperature Dewpoint
19°C / 66°F 12°C / 54°F
Humidity Altimeter Pressure
64% 29.94" Hg 1014 hPa